createdAt,value
2017-01-01T00:00:03.244Z,0
2017-01-01T00:01:03.653Z,0
2017-01-01T00:02:03.244Z,0
2017-01-01T00:03:03.644Z,0
2017-01-01T00:04:03.224Z,0
2017-01-01T00:05:03.641Z,0
2017-01-01T00:06:03.224Z,0
2017-01-01T00:07:04.049Z,0
2017-01-01T00:08:04.032Z,0
2017-01-01T00:09:03.612Z,0
2017-01-01T00:10:03.637Z,0
2017-01-01T00:11:04.020Z,0
2017-01-01T00:12:03.601Z,0
2017-01-01T00:13:03.180Z,0
2017-01-01T00:14:03.176Z,0
2017-01-01T00:15:02.764Z,0
2017-01-01T00:16:03.992Z,0
2017-01-01T00:17:03.596Z,0
2017-01-01T00:18:03.572Z,0
2017-01-01T00:19:03.157Z,0
2017-01-01T00:20:03.560Z,0
2017-01-01T00:21:03.976Z,0
2017-01-01T00:22:03.156Z,0
2017-01-01T00:23:03.136Z,0
2017-01-01T00:24:03.532Z,0
2017-01-01T00:25:03.536Z,0
2017-01-01T00:26:03.536Z,0
2017-01-01T00:27:04.944Z,0
2017-01-01T00:28:03.512Z,0
2017-01-01T00:29:03.116Z,0
2017-01-01T00:30:03.104Z,0
2017-01-01T00:31:03.100Z,0
2017-01-01T00:32:03.504Z,0
2017-01-01T00:33:03.516Z,0
2017-01-01T00:34:03.500Z,0
2017-01-01T00:35:03.488Z,0
2017-01-01T00:36:03.076Z,0
2017-01-01T00:37:03.668Z,0
2017-01-01T00:38:03.890Z,0
2017-01-01T00:39:03.884Z,0
2017-01-01T00:40:02.656Z,0
2017-01-01T00:41:03.064Z,0
2017-01-01T00:42:03.456Z,0
2017-01-01T00:43:03.456Z,0
2017-01-01T00:44:02.632Z,0
2017-01-01T00:45:03.440Z,0
2017-01-01T00:46:03.852Z,0
2017-01-01T00:47:03.420Z,0
2017-01-01T00:48:03.020Z,0
2017-01-01T00:49:03.012Z,0
2017-01-01T00:50:03.008Z,0
2017-01-01T00:51:03.008Z,0
2017-01-01T00:52:03.820Z,0
2017-01-01T00:53:02.996Z,0
2017-01-01T00:54:03.404Z,0
2017-01-01T00:55:03.389Z,0
2017-01-01T00:56:02.572Z,0
2017-01-01T00:57:03.392Z,0
2017-01-01T00:58:03.800Z,0
2017-01-01T00:59:02.972Z,0
2017-01-01T01:00:03.377Z,0
2017-01-01T01:01:03.368Z,0
2017-01-01T01:02:03.772Z,0
2017-01-01T01:03:03.361Z,0
2017-01-01T01:04:03.352Z,0
2017-01-01T01:05:03.752Z,0
2017-01-01T01:06:02.928Z,0
2017-01-01T01:07:03.352Z,0
2017-01-01T01:08:03.328Z,0
2017-01-01T01:09:03.328Z,0
2017-01-01T01:10:02.917Z,0
2017-01-01T01:11:03.728Z,0
2017-01-01T01:12:02.909Z,0
2017-01-01T01:13:03.309Z,0
2017-01-01T01:14:03.716Z,0
2017-01-01T01:15:02.888Z,0
2017-01-01T01:16:02.881Z,0
2017-01-01T01:17:03.960Z,0
2017-01-01T01:18:03.697Z,0
2017-01-01T01:19:03.293Z,0
2017-01-01T01:20:02.869Z,0
2017-01-01T01:21:03.280Z,0
2017-01-01T01:22:02.864Z,0
2017-01-01T01:23:02.864Z,0
2017-01-01T01:24:02.853Z,0
2017-01-01T01:25:03.677Z,0
2017-01-01T01:26:03.277Z,0
2017-01-01T01:27:03.648Z,0
2017-01-01T01:28:02.413Z,0
2017-01-01T01:29:02.833Z,0
2017-01-01T01:30:02.001Z,0
2017-01-01T01:31:02.412Z,0
2017-01-01T01:32:03.228Z,0
2017-01-01T01:33:03.628Z,0
2017-01-01T01:34:03.205Z,0
2017-01-01T01:35:03.253Z,0
2017-01-01T01:36:02.797Z,0
2017-01-01T01:37:03.233Z,0
2017-01-01T01:38:02.785Z,0
2017-01-01T01:39:03.193Z,0
2017-01-01T01:40:02.801Z,0
2017-01-01T01:41:03.185Z,0
2017-01-01T01:42:03.585Z,0
2017-01-01T01:43:02.769Z,0
2017-01-01T01:44:03.163Z,0
2017-01-01T01:45:03.153Z,0
2017-01-01T01:46:03.153Z,0
2017-01-01T01:47:03.561Z,0
2017-01-01T01:48:03.557Z,0
2017-01-01T01:49:03.145Z,0
2017-01-01T01:50:02.741Z,0
2017-01-01T01:51:02.721Z,0
2017-01-01T01:52:03.539Z,0
2017-01-01T01:53:03.125Z,0
2017-01-01T01:54:03.121Z,0
2017-01-01T01:55:02.701Z,0
2017-01-01T01:56:03.109Z,0
2017-01-01T01:57:03.521Z,0
2017-01-01T01:58:02.285Z,0
2017-01-01T01:59:02.698Z,0
2017-01-01T02:00:03.506Z,0
2017-01-01T02:01:02.681Z,0
2017-01-01T02:02:03.085Z,0
2017-01-01T02:03:02.669Z,0
2017-01-01T02:04:03.069Z,0
2017-01-01T02:05:03.478Z,0
2017-01-01T02:06:02.654Z,0
2017-01-01T02:07:03.066Z,0
2017-01-01T02:08:03.078Z,0
2017-01-01T02:09:03.045Z,0
2017-01-01T02:10:03.042Z,0
2017-01-01T02:11:03.066Z,0
2017-01-01T02:12:03.042Z,0
2017-01-01T02:13:03.438Z,0
2017-01-01T02:14:02.610Z,0
2017-01-01T02:15:02.606Z,0
2017-01-01T02:16:03.014Z,0
2017-01-01T02:17:03.454Z,0
2017-01-01T02:18:01.780Z,0
2017-01-01T02:19:02.594Z,0
2017-01-01T02:20:02.990Z,0
2017-01-01T02:21:02.590Z,0
2017-01-01T02:22:02.610Z,0
2017-01-01T02:23:02.982Z,0
2017-01-01T02:24:02.974Z,0
2017-01-01T02:25:02.974Z,0
2017-01-01T02:26:03.378Z,0
2017-01-01T02:27:02.550Z,0
2017-01-01T02:28:02.538Z,0
2017-01-01T02:29:02.966Z,0
2017-01-01T02:30:03.363Z,0
2017-01-01T02:31:02.130Z,0
2017-01-01T02:32:02.938Z,0
2017-01-01T02:33:02.554Z,0
2017-01-01T02:34:02.931Z,0
2017-01-01T02:35:03.350Z,0
2017-01-01T02:36:02.915Z,0
2017-01-01T02:37:02.918Z,0
2017-01-01T02:38:02.506Z,0
2017-01-01T02:39:02.912Z,0
2017-01-01T02:40:02.911Z,0
2017-01-01T02:41:02.903Z,0
2017-01-01T02:42:02.483Z,0
2017-01-01T02:43:02.482Z,0
2017-01-01T02:44:02.067Z,0
2017-01-01T02:45:02.467Z,0
2017-01-01T02:46:02.459Z,0
2017-01-01T02:47:02.867Z,0
2017-01-01T02:48:02.907Z,0
2017-01-01T02:49:02.447Z,0
2017-01-01T02:50:02.867Z,0
2017-01-01T02:51:03.263Z,0
2017-01-01T02:52:02.847Z,0
2017-01-01T02:53:02.863Z,0
2017-01-01T02:54:03.250Z,0
2017-01-01T02:55:02.427Z,0
2017-01-01T02:56:03.243Z,0
2017-01-01T02:57:02.407Z,0
2017-01-01T02:58:02.831Z,0
2017-01-01T02:59:02.407Z,0
2017-01-01T03:00:02.812Z,0
2017-01-01T03:01:02.803Z,0
2017-01-01T03:02:02.799Z,0
2017-01-01T03:03:02.375Z,0
2017-01-01T03:04:02.787Z,0
2017-01-01T03:05:02.375Z,0
2017-01-01T03:06:03.199Z,0
2017-01-01T03:07:02.776Z,0
2017-01-01T03:08:02.763Z,0
2017-01-01T03:09:03.183Z,0
2017-01-01T03:10:02.767Z,0
2017-01-01T03:11:03.167Z,0
2017-01-01T03:12:02.751Z,0
2017-01-01T03:13:02.747Z,0
2017-01-01T03:14:02.739Z,0
2017-01-01T03:15:03.144Z,0
2017-01-01T03:16:02.323Z,0
2017-01-01T03:17:03.139Z,0
2017-01-01T03:18:02.311Z,0
2017-01-01T03:19:02.312Z,0
2017-01-01T03:20:02.299Z,0
2017-01-01T03:21:02.716Z,0
2017-01-01T03:22:03.116Z,0
2017-01-01T03:23:02.700Z,0
2017-01-01T03:24:02.692Z,0
2017-01-01T03:25:02.283Z,0
2017-01-01T03:26:01.868Z,0
2017-01-01T03:27:03.088Z,0
2017-01-01T03:28:02.672Z,0
2017-01-01T03:29:02.260Z,0
2017-01-01T03:30:02.264Z,0
2017-01-01T03:31:02.248Z,0
2017-01-01T03:32:03.064Z,0
2017-01-01T03:33:02.248Z,0
2017-01-01T03:34:03.083Z,0
2017-01-01T03:35:02.647Z,0
2017-01-01T03:36:01.820Z,0
2017-01-01T03:37:02.635Z,0
2017-01-01T03:38:03.039Z,0
2017-01-01T03:39:03.036Z,0
2017-01-01T03:40:02.204Z,0
2017-01-01T03:41:03.055Z,0
2017-01-01T03:42:02.615Z,0
2017-01-01T03:43:02.603Z,0
2017-01-01T03:44:02.596Z,0
2017-01-01T03:45:02.627Z,0
2017-01-01T03:46:02.191Z,0
2017-01-01T03:47:02.175Z,0
2017-01-01T03:48:02.587Z,0
2017-01-01T03:49:02.580Z,0
2017-01-01T03:50:02.599Z,0
2017-01-01T03:51:02.572Z,0
2017-01-01T03:52:01.323Z,0
2017-01-01T03:53:02.551Z,0
2017-01-01T03:54:02.547Z,0
2017-01-01T03:55:02.959Z,0
2017-01-01T03:56:02.543Z,0
2017-01-01T03:57:02.947Z,0
2017-01-01T03:58:02.116Z,0
2017-01-01T03:59:02.943Z,0
2017-01-01T04:00:02.945Z,0
2017-01-01T04:01:02.520Z,0
2017-01-01T04:02:02.919Z,0
2017-01-01T04:03:02.535Z,0
2017-01-01T04:04:02.095Z,0
2017-01-01T04:05:02.099Z,0
2017-01-01T04:06:02.915Z,0
2017-01-01T04:07:02.095Z,0
2017-01-01T04:08:02.079Z,0
2017-01-01T04:09:02.483Z,0
2017-01-01T04:10:02.483Z,0
2017-01-01T04:11:02.871Z,0
2017-01-01T04:12:02.463Z,0
2017-01-01T04:13:02.459Z,0
2017-01-01T04:14:02.047Z,0
2017-01-01T04:15:02.467Z,0
2017-01-01T04:16:02.859Z,0
2017-01-01T04:17:02.447Z,0
2017-01-01T04:18:02.435Z,0
2017-01-01T04:19:02.031Z,0
2017-01-01T04:20:02.023Z,0
2017-01-01T04:21:02.439Z,0
2017-01-01T04:22:02.831Z,0
2017-01-01T04:23:02.819Z,0
2017-01-01T04:24:02.399Z,0
2017-01-01T04:25:02.391Z,0
2017-01-01T04:26:01.991Z,0
2017-01-01T04:27:02.395Z,0
2017-01-01T04:28:01.987Z,0
2017-01-01T04:29:01.967Z,0
2017-01-01T04:30:02.383Z,0
2017-01-01T04:31:01.959Z,0
2017-01-01T04:32:02.367Z,0
2017-01-01T04:33:02.367Z,0
2017-01-01T04:34:01.947Z,0
2017-01-01T04:35:02.363Z,0
2017-01-01T04:36:02.763Z,0
2017-01-01T04:37:02.754Z,0
2017-01-01T04:38:02.751Z,0
2017-01-01T04:39:01.519Z,0
2017-01-01T04:40:02.739Z,0
2017-01-01T04:41:02.343Z,0
2017-01-01T04:42:02.520Z,0
2017-01-01T04:43:02.324Z,0
2017-01-01T04:44:02.316Z,0
2017-01-01T04:45:02.328Z,0
2017-01-01T04:46:01.484Z,0
2017-01-01T04:47:01.896Z,0
2017-01-01T04:48:02.297Z,0
2017-01-01T04:49:02.305Z,0
2017-01-01T04:50:02.294Z,0
2017-01-01T04:51:02.693Z,0
2017-01-01T04:52:01.053Z,0
2017-01-01T04:53:02.277Z,0
2017-01-01T04:54:01.862Z,0
2017-01-01T04:55:01.442Z,0
2017-01-01T04:56:01.846Z,0
2017-01-01T04:57:01.846Z,0
2017-01-01T04:58:02.258Z,0
2017-01-01T04:59:02.239Z,0
2017-01-01T05:00:02.643Z,0
2017-01-01T05:01:02.247Z,0
2017-01-01T05:02:02.223Z,0
2017-01-01T05:03:01.807Z,0
2017-01-01T05:04:01.815Z,0
2017-01-01T05:05:01.392Z,0
2017-01-01T05:06:02.216Z,0
2017-01-01T05:07:02.216Z,0
2017-01-01T05:08:01.800Z,0
2017-01-01T05:09:02.717Z,0
2017-01-01T05:10:01.784Z,0
2017-01-01T05:11:01.794Z,0
2017-01-01T05:12:02.600Z,0
2017-01-01T05:13:02.593Z,0
2017-01-01T05:14:01.769Z,0
2017-01-01T05:15:01.765Z,0
2017-01-01T05:16:01.757Z,0
2017-01-01T05:17:01.341Z,0
2017-01-01T05:18:02.174Z,0
2017-01-01T05:19:01.742Z,0
2017-01-01T05:20:02.558Z,0
2017-01-01T05:21:02.142Z,0
2017-01-01T05:22:01.730Z,0
2017-01-01T05:23:01.314Z,0
2017-01-01T05:24:02.131Z,0
2017-01-01T05:25:01.307Z,0
2017-01-01T05:26:02.127Z,0
2017-01-01T05:27:01.295Z,0
2017-01-01T05:28:02.115Z,0
2017-01-01T05:29:02.511Z,0
2017-01-01T05:30:01.692Z,0
2017-01-01T05:31:01.688Z,0
2017-01-01T05:32:02.091Z,0
2017-01-01T05:33:01.688Z,0
2017-01-01T05:34:01.676Z,0
2017-01-01T05:35:01.666Z,0
2017-01-01T05:36:01.664Z,0
2017-01-01T05:37:01.668Z,0
2017-01-01T05:38:02.468Z,0
2017-01-01T05:39:01.680Z,0
2017-01-01T05:40:02.468Z,0
2017-01-01T05:41:01.645Z,0
2017-01-01T05:42:02.077Z,0
2017-01-01T05:43:02.041Z,0
2017-01-01T05:44:01.617Z,0
2017-01-01T05:45:02.036Z,0
2017-01-01T05:46:02.441Z,0
2017-01-01T05:47:01.617Z,0
2017-01-01T05:48:01.602Z,0
2017-01-01T05:49:01.629Z,0
2017-01-01T05:50:02.014Z,0
2017-01-01T05:51:02.414Z,0
2017-01-01T05:52:01.590Z,0
2017-01-01T05:53:02.410Z,0
2017-01-01T05:54:01.578Z,0
2017-01-01T05:55:01.994Z,0
2017-01-01T05:56:01.983Z,0
2017-01-01T05:57:01.967Z,0
2017-01-01T05:58:01.567Z,0
2017-01-01T05:59:01.559Z,0
2017-01-01T06:00:01.547Z,0
2017-01-01T06:01:02.379Z,0
2017-01-01T06:02:01.539Z,0
2017-01-01T06:03:02.605Z,0
2017-01-01T06:04:01.935Z,0
2017-01-01T06:05:01.528Z,0
2017-01-01T06:06:02.347Z,0
2017-01-01T06:07:01.935Z,0
2017-01-01T06:08:01.100Z,0
2017-01-01T06:09:01.917Z,0
2017-01-01T06:10:01.908Z,0
2017-01-01T06:11:01.908Z,0
2017-01-01T06:12:02.316Z,0
2017-01-01T06:13:02.308Z,0
2017-01-01T06:14:01.889Z,0
2017-01-01T06:15:01.080Z,0
2017-01-01T06:16:01.885Z,0
2017-01-01T06:17:01.477Z,0
2017-01-01T06:18:01.469Z,0
2017-01-01T06:19:01.457Z,0
2017-01-01T06:20:01.461Z,0
2017-01-01T06:21:01.037Z,0
2017-01-01T06:22:01.865Z,0
2017-01-01T06:23:01.461Z,0
2017-01-01T06:24:01.429Z,0
2017-01-01T06:25:01.846Z,0
2017-01-01T06:26:01.837Z,0
2017-01-01T06:27:01.418Z,0
2017-01-01T06:28:01.830Z,0
2017-01-01T06:29:01.414Z,0
2017-01-01T06:30:01.826Z,0
2017-01-01T06:31:01.818Z,0
2017-01-01T06:32:00.982Z,0
2017-01-01T06:33:01.806Z,0
2017-01-01T06:34:00.980Z,0
2017-01-01T06:35:00.971Z,0
2017-01-01T06:36:01.375Z,0
2017-01-01T06:37:01.783Z,0
2017-01-01T06:38:01.367Z,0
2017-01-01T06:39:02.187Z,0
2017-01-01T06:40:01.771Z,0
2017-01-01T06:41:01.759Z,0
2017-01-01T06:42:01.347Z,0
2017-01-01T06:43:01.355Z,0
2017-01-01T06:44:02.164Z,0
2017-01-01T06:45:01.752Z,0
2017-01-01T06:46:02.156Z,0
2017-01-01T06:47:01.332Z,0
2017-01-01T06:48:00.912Z,0
2017-01-01T06:49:01.732Z,0
2017-01-01T06:50:01.720Z,0
2017-01-01T06:51:01.720Z,0
2017-01-01T06:52:01.708Z,0
2017-01-01T06:53:01.309Z,0
2017-01-01T06:54:01.289Z,0
2017-01-01T06:55:02.096Z,0
2017-01-01T06:56:01.697Z,0
2017-01-01T06:57:01.693Z,0
2017-01-01T06:58:01.681Z,0
2017-01-01T06:59:02.097Z,0
2017-01-01T07:00:01.669Z,0
2017-01-01T07:01:01.669Z,0
2017-01-01T07:02:02.077Z,0
2017-01-01T07:03:01.249Z,0
2017-01-01T07:04:01.653Z,0
2017-01-01T07:05:01.237Z,0
2017-01-01T07:06:01.234Z,0
2017-01-01T07:07:01.626Z,0
2017-01-01T07:08:02.038Z,0
2017-01-01T07:09:01.634Z,0
2017-01-01T07:10:02.038Z,0
2017-01-01T07:11:01.210Z,0
2017-01-01T07:12:01.210Z,0
2017-01-01T07:13:01.630Z,0
2017-01-01T07:14:01.611Z,0
2017-01-01T07:15:01.195Z,0
2017-01-01T07:16:01.187Z,0
2017-01-01T07:17:01.191Z,0
2017-01-01T07:18:01.999Z,0
2017-01-01T07:19:01.587Z,0
2017-01-01T07:20:00.755Z,0
2017-01-01T07:21:01.159Z,0
2017-01-01T07:22:01.167Z,0
2017-01-01T07:23:01.155Z,0
2017-01-01T07:24:01.560Z,0
2017-01-01T07:25:01.548Z,0
2017-01-01T07:26:01.544Z,0
2017-01-01T07:27:01.544Z,0
2017-01-01T07:28:01.128Z,0
2017-01-01T07:29:01.124Z,0
2017-01-01T07:30:01.112Z,0
2017-01-01T07:31:01.521Z,0
2017-01-01T07:32:01.108Z,0
2017-01-01T07:33:01.928Z,5
2017-01-01T07:34:01.517Z,5
2017-01-01T07:35:01.532Z,5
2017-01-01T07:36:01.905Z,5
2017-01-01T07:37:01.493Z,5
2017-01-01T07:38:01.089Z,5
2017-01-01T07:39:01.905Z,5
2017-01-01T07:40:01.081Z,5
2017-01-01T07:41:01.897Z,5
2017-01-01T07:42:01.465Z,5
2017-01-01T07:43:01.465Z,5
2017-01-01T07:44:01.461Z,5
2017-01-01T07:45:01.466Z,5
2017-01-01T07:46:01.874Z,5
2017-01-01T07:47:00.630Z,5
2017-01-01T07:48:01.854Z,5
2017-01-01T07:49:01.430Z,5
2017-01-01T07:50:01.846Z,5
2017-01-01T07:51:01.050Z,5
2017-01-01T07:52:01.430Z,5
2017-01-01T07:53:01.014Z,10
2017-01-01T07:54:01.423Z,10
2017-01-01T07:55:01.010Z,10
2017-01-01T07:56:01.007Z,10
2017-01-01T07:57:00.983Z,10
2017-01-01T07:58:01.395Z,10
2017-01-01T07:59:00.579Z,10
2017-01-01T08:00:01.399Z,10
2017-01-01T08:01:00.983Z,10
2017-01-01T08:02:01.411Z,10
2017-01-01T08:03:01.371Z,10
2017-01-01T08:04:01.787Z,10
2017-01-01T08:05:00.952Z,10
2017-01-01T08:06:00.947Z,10
2017-01-01T08:07:01.760Z,10
2017-01-01T08:08:00.940Z,10
2017-01-01T08:09:00.936Z,10
2017-01-01T08:10:01.340Z,10
2017-01-01T08:11:00.503Z,10
2017-01-01T08:12:01.739Z,10
2017-01-01T08:13:00.938Z,10
2017-01-01T08:14:00.910Z,10
2017-01-01T08:15:01.322Z,10
2017-01-01T08:16:00.889Z,10
2017-01-01T08:17:01.721Z,10
2017-01-01T08:18:01.708Z,10
2017-01-01T08:19:01.704Z,10
2017-01-01T08:20:00.884Z,15
2017-01-01T08:21:01.691Z,15
2017-01-01T08:22:00.867Z,15
2017-01-01T08:23:01.279Z,15
2017-01-01T08:24:00.863Z,15
2017-01-01T08:25:01.266Z,15
2017-01-01T08:26:01.254Z,15
2017-01-01T08:27:01.250Z,15
2017-01-01T08:28:01.301Z,15
2017-01-01T08:29:01.241Z,15
2017-01-01T08:30:01.233Z,15
2017-01-01T08:31:01.641Z,15
2017-01-01T08:32:01.228Z,15
2017-01-01T08:33:01.640Z,15
2017-01-01T08:34:01.224Z,15
2017-01-01T08:35:01.627Z,15
2017-01-01T08:36:01.203Z,15
2017-01-01T08:37:01.195Z,15
2017-01-01T08:38:01.602Z,15
2017-01-01T08:39:01.190Z,15
2017-01-01T08:40:00.778Z,20
2017-01-01T08:41:01.178Z,20
2017-01-01T08:42:01.178Z,20
2017-01-01T08:43:01.682Z,20
2017-01-01T08:44:00.766Z,20
2017-01-01T08:45:00.777Z,20
2017-01-01T08:46:01.162Z,20
2017-01-01T08:47:01.157Z,25
2017-01-01T08:48:01.554Z,25
2017-01-01T08:49:01.149Z,25
2017-01-01T08:50:01.145Z,25
2017-01-01T08:51:01.140Z,25
2017-01-01T08:52:00.709Z,25
2017-01-01T08:53:01.125Z,25
2017-01-01T08:54:00.301Z,25
2017-01-01T08:55:01.109Z,25
2017-01-01T08:56:00.705Z,25
2017-01-01T08:57:01.509Z,25
2017-01-01T08:58:00.685Z,25
2017-01-01T08:59:00.681Z,25
2017-01-01T09:00:00.685Z,25
2017-01-01T09:01:01.081Z,25
2017-01-01T09:02:01.081Z,30
2017-01-01T09:03:01.084Z,30
2017-01-01T09:04:01.517Z,30
2017-01-01T09:05:00.652Z,30
2017-01-01T09:06:01.068Z,30
2017-01-01T09:07:01.052Z,30
2017-01-01T09:08:00.645Z,30
2017-01-01T09:09:01.048Z,30
2017-01-01T09:10:00.221Z,30
2017-01-01T09:11:01.040Z,35
2017-01-01T09:12:00.616Z,35
2017-01-01T09:13:00.620Z,35
2017-01-01T09:14:01.016Z,35
2017-01-01T09:15:01.016Z,30
2017-01-01T09:16:01.424Z,30
2017-01-01T09:17:01.428Z,30
2017-01-01T09:18:00.176Z,30
2017-01-01T09:19:01.007Z,30
2017-01-01T09:20:00.587Z,35
2017-01-01T09:21:00.571Z,30
2017-01-01T09:22:00.577Z,30
2017-01-01T09:23:01.399Z,30
2017-01-01T09:24:00.571Z,35
2017-01-01T09:25:00.971Z,35
2017-01-01T09:26:00.971Z,40
2017-01-01T09:27:00.583Z,35
2017-01-01T09:28:00.139Z,35
2017-01-01T09:29:00.955Z,35
2017-01-01T09:30:00.547Z,35
2017-01-01T09:31:01.383Z,35
2017-01-01T09:32:00.943Z,35
2017-01-01T09:32:59.702Z,35
2017-01-01T09:34:00.939Z,35
2017-01-01T09:35:00.927Z,35
2017-01-01T09:36:00.515Z,30
2017-01-01T09:37:00.911Z,35
2017-01-01T09:38:00.510Z,35
2017-01-01T09:39:01.343Z,35
2017-01-01T09:40:00.914Z,35
2017-01-01T09:41:00.902Z,35
2017-01-01T09:42:00.486Z,35
2017-01-01T09:43:00.886Z,35
2017-01-01T09:44:00.470Z,35
2017-01-01T09:45:01.298Z,35
2017-01-01T09:46:01.310Z,35
2017-01-01T09:47:00.046Z,35
2017-01-01T09:48:00.462Z,35
2017-01-01T09:49:00.446Z,35
2017-01-01T09:50:00.442Z,35
2017-01-01T09:51:00.438Z,35
2017-01-01T09:52:01.262Z,35
2017-01-01T09:53:00.025Z,35
2017-01-01T09:54:00.854Z,35
2017-01-01T09:55:00.834Z,35
2017-01-01T09:56:01.246Z,35
2017-01-01T09:57:00.446Z,35
2017-01-01T09:58:00.826Z,35
2017-01-01T09:59:01.230Z,35
2017-01-01T10:00:00.818Z,35
2017-01-01T10:01:00.814Z,35
2017-01-01T10:02:01.218Z,35
2017-01-01T10:03:00.393Z,35
2017-01-01T10:04:01.209Z,35
2017-01-01T10:05:00.382Z,40
2017-01-01T10:06:00.386Z,40
2017-01-01T10:07:00.790Z,35
2017-01-01T10:07:59.953Z,40
2017-01-01T10:09:00.973Z,40
2017-01-01T10:10:00.765Z,40
2017-01-01T10:11:00.761Z,40
2017-01-01T10:12:00.769Z,45
2017-01-01T10:13:00.349Z,45
2017-01-01T10:14:01.161Z,50
2017-01-01T10:15:00.744Z,50
2017-01-01T10:15:59.952Z,50
2017-01-01T10:17:00.733Z,50
2017-01-01T10:18:00.324Z,50
2017-01-01T10:19:00.312Z,45
2017-01-01T10:20:01.144Z,45
2017-01-01T10:21:00.727Z,50
2017-01-01T10:22:00.743Z,50
2017-01-01T10:23:00.711Z,55
2017-01-01T10:24:01.115Z,55
2017-01-01T10:25:00.695Z,50
2017-01-01T10:26:00.695Z,50
2017-01-01T10:27:00.695Z,50
2017-01-01T10:28:00.687Z,50
2017-01-01T10:29:00.687Z,50
2017-01-01T10:30:00.699Z,50
2017-01-01T10:30:59.866Z,55
2017-01-01T10:32:00.671Z,55
2017-01-01T10:33:00.250Z,60
2017-01-01T10:34:01.070Z,55
2017-01-01T10:35:00.242Z,55
2017-01-01T10:35:59.838Z,50
2017-01-01T10:37:00.650Z,50
2017-01-01T10:38:00.234Z,50
2017-01-01T10:39:00.238Z,50
2017-01-01T10:39:59.814Z,50
2017-01-01T10:41:00.230Z,55
2017-01-01T10:42:00.627Z,55
2017-01-01T10:43:00.629Z,55
2017-01-01T10:44:00.250Z,55
2017-01-01T10:45:00.206Z,55
2017-01-01T10:46:00.610Z,55
2017-01-01T10:47:00.606Z,55
2017-01-01T10:48:01.017Z,60
2017-01-01T10:49:00.603Z,65
2017-01-01T10:50:00.586Z,65
2017-01-01T10:51:00.586Z,70
2017-01-01T10:52:00.589Z,75
2017-01-01T10:53:00.585Z,75
2017-01-01T10:54:00.161Z,75
2017-01-01T10:55:00.158Z,75
2017-01-01T10:56:00.569Z,70
2017-01-01T10:57:00.145Z,70
2017-01-01T10:58:00.969Z,70
2017-01-01T10:59:00.973Z,70
2017-01-01T11:00:00.973Z,70
2017-01-01T11:01:00.549Z,70
2017-01-01T11:02:00.549Z,70
2017-01-01T11:03:00.129Z,70
2017-01-01T11:04:00.941Z,75
2017-01-01T11:05:00.945Z,75
2017-01-01T11:05:59.701Z,80
2017-01-01T11:07:00.937Z,80
2017-01-01T11:08:00.528Z,75
2017-01-01T11:09:00.517Z,75
2017-01-01T11:10:00.108Z,70
2017-01-01T11:11:00.917Z,70
2017-01-01T11:12:00.505Z,65
2017-01-01T11:13:00.496Z,60
2017-01-01T11:14:00.500Z,60
2017-01-01T11:15:00.905Z,60
2017-01-01T11:16:00.492Z,60
2017-01-01T11:17:00.492Z,60
2017-01-01T11:18:00.896Z,60
2017-01-01T11:19:00.909Z,60
2017-01-01T11:20:00.067Z,60
2017-01-01T11:21:00.049Z,65
2017-01-01T11:22:00.052Z,65
2017-01-01T11:23:00.054Z,65
2017-01-01T11:24:00.868Z,60
2017-01-01T11:25:00.036Z,60
2017-01-01T11:26:00.036Z,60
2017-01-01T11:27:00.464Z,60
2017-01-01T11:28:00.448Z,60
2017-01-01T11:29:00.444Z,60
2017-01-01T11:30:00.432Z,60
2017-01-01T11:31:00.456Z,60
2017-01-01T11:32:00.424Z,60
2017-01-01T11:33:00.420Z,60
2017-01-01T11:34:00.416Z,65
2017-01-01T11:35:00.412Z,65
2017-01-01T11:36:00.828Z,65
2017-01-01T11:37:00.403Z,65
2017-01-01T11:38:00.412Z,65
2017-01-01T11:39:00.392Z,65
2017-01-01T11:40:00.392Z,65
2017-01-01T11:41:00.419Z,65
2017-01-01T11:42:00.388Z,65
2017-01-01T11:43:00.016Z,65
2017-01-01T11:44:00.380Z,65
2017-01-01T11:45:00.791Z,65
2017-01-01T11:46:00.363Z,70
2017-01-01T11:47:00.363Z,65
2017-01-01T11:48:00.779Z,65
2017-01-01T11:49:00.352Z,60
2017-01-01T11:50:00.363Z,60
2017-01-01T11:50:59.943Z,60
2017-01-01T11:52:00.755Z,60
2017-01-01T11:53:00.347Z,60
2017-01-01T11:53:59.935Z,60
2017-01-01T11:55:00.343Z,60
2017-01-01T11:56:00.331Z,60
2017-01-01T11:56:59.915Z,60
2017-01-01T11:58:00.324Z,60
2017-01-01T11:58:59.911Z,65
2017-01-01T12:00:00.724Z,60
2017-01-01T12:01:00.303Z,60
2017-01-01T12:01:59.487Z,60
2017-01-01T12:02:59.894Z,60
2017-01-01T12:04:00.310Z,60
2017-01-01T12:05:00.699Z,60
2017-01-01T12:05:59.875Z,60
2017-01-01T12:07:00.282Z,55
2017-01-01T12:08:00.699Z,55
2017-01-01T12:09:00.687Z,55
2017-01-01T12:10:00.274Z,60
2017-01-01T12:10:59.863Z,60
2017-01-01T12:12:00.290Z,60
2017-01-01T12:13:00.262Z,60
2017-01-01T12:14:00.266Z,60
2017-01-01T12:14:59.837Z,60
2017-01-01T12:16:00.666Z,60
2017-01-01T12:17:00.250Z,60
2017-01-01T12:18:00.658Z,55
2017-01-01T12:18:59.835Z,55
2017-01-01T12:20:00.235Z,55
2017-01-01T12:21:00.651Z,60
2017-01-01T12:22:00.239Z,60
2017-01-01T12:23:00.639Z,60
2017-01-01T12:24:31.887Z,60
2017-01-01T12:25:00.232Z,60
2017-01-01T12:26:00.227Z,55
2017-01-01T12:27:00.215Z,55
2017-01-01T12:28:00.231Z,55
2017-01-01T12:28:59.799Z,50
2017-01-01T12:30:00.199Z,50
2017-01-01T12:31:00.611Z,50
2017-01-01T12:32:00.611Z,50
2017-01-01T12:33:00.603Z,50
2017-01-01T12:34:00.191Z,50
2017-01-01T12:35:00.591Z,55
2017-01-01T12:36:00.592Z,55
2017-01-01T12:37:00.591Z,55
2017-01-01T12:37:59.763Z,60
2017-01-01T12:39:00.172Z,60
2017-01-01T12:40:00.167Z,60
2017-01-01T12:41:00.576Z,60
2017-01-01T12:41:59.751Z,60
2017-01-01T12:42:59.739Z,60
2017-01-01T12:44:00.572Z,60
2017-01-01T12:44:59.324Z,60
2017-01-01T12:45:59.728Z,60
2017-01-01T12:47:00.136Z,60
2017-01-01T12:48:00.144Z,60
2017-01-01T12:49:00.132Z,60
2017-01-01T12:49:59.708Z,60
2017-01-01T12:50:59.720Z,55
2017-01-01T12:51:59.717Z,60
2017-01-01T12:52:59.708Z,60
2017-01-01T12:54:00.533Z,60
2017-01-01T12:55:00.529Z,55
2017-01-01T12:56:00.557Z,55
2017-01-01T12:57:00.105Z,60
2017-01-01T12:57:59.277Z,60
2017-01-01T12:59:00.505Z,55
2017-01-01T13:00:00.117Z,60
2017-01-01T13:01:00.498Z,55
2017-01-01T13:01:59.269Z,55
2017-01-01T13:03:00.070Z,55
2017-01-01T13:04:00.070Z,55
2017-01-01T13:05:00.074Z,55
2017-01-01T13:06:00.486Z,55
2017-01-01T13:07:00.070Z,55
2017-01-01T13:08:00.070Z,55
2017-01-01T13:09:00.059Z,55
2017-01-01T13:10:00.054Z,50
2017-01-01T13:11:00.471Z,55
2017-01-01T13:12:00.051Z,55
2017-01-01T13:13:00.051Z,55
2017-01-01T13:14:00.036Z,55
2017-01-01T13:15:00.443Z,55
2017-01-01T13:15:59.620Z,50
2017-01-01T13:17:00.444Z,50
2017-01-01T13:18:00.452Z,50
2017-01-01T13:19:00.024Z,50
2017-01-01T13:20:00.016Z,50
2017-01-01T13:21:00.432Z,50
2017-01-01T13:22:00.004Z,50
2017-01-01T13:23:00.413Z,50
2017-01-01T13:24:00.008Z,50
2017-01-01T13:25:00.004Z,50
2017-01-01T13:26:00.411Z,50
2017-01-01T13:26:59.585Z,50
2017-01-01T13:27:59.997Z,50
2017-01-01T13:29:00.405Z,50
2017-01-01T13:30:00.013Z,50
2017-01-01T13:31:00.393Z,50
2017-01-01T13:31:59.973Z,50
2017-01-01T13:33:00.381Z,50
2017-01-01T13:33:59.550Z,50
2017-01-01T13:34:59.965Z,50
2017-01-01T13:35:59.557Z,50
2017-01-01T13:36:59.957Z,50
2017-01-01T13:37:59.954Z,50
2017-01-01T13:39:00.366Z,50
2017-01-01T13:40:00.354Z,55
2017-01-01T13:40:59.526Z,55
2017-01-01T13:42:00.350Z,55
2017-01-01T13:42:59.926Z,55
2017-01-01T13:43:59.522Z,55
2017-01-01T13:44:59.919Z,50
2017-01-01T13:45:59.920Z,50
2017-01-01T13:46:59.923Z,50
2017-01-01T13:47:59.915Z,50
2017-01-01T13:49:00.323Z,50
2017-01-01T13:50:00.327Z,50
2017-01-01T13:50:59.911Z,50
2017-01-01T13:51:59.083Z,50
2017-01-01T13:53:00.311Z,50
2017-01-01T13:53:59.901Z,50
2017-01-01T13:54:59.884Z,50
2017-01-01T13:55:59.892Z,45
2017-01-01T13:57:00.300Z,45
2017-01-01T13:57:59.872Z,45
2017-01-01T13:58:59.884Z,45
2017-01-01T14:00:00.280Z,45
2017-01-01T14:00:59.888Z,45
2017-01-01T14:02:00.276Z,45
2017-01-01T14:02:59.863Z,45
2017-01-01T14:03:59.853Z,45
2017-01-01T14:04:59.853Z,45
2017-01-01T14:06:00.265Z,45
2017-01-01T14:06:59.837Z,45
2017-01-01T14:07:59.873Z,45
2017-01-01T14:08:59.009Z,45
2017-01-01T14:09:59.425Z,45
2017-01-01T14:11:00.238Z,45
2017-01-01T14:12:00.242Z,40
2017-01-01T14:12:59.422Z,40
2017-01-01T14:14:00.242Z,40
2017-01-01T14:14:59.410Z,40
2017-01-01T14:15:59.818Z,40
2017-01-01T14:16:59.815Z,40
2017-01-01T14:17:58.991Z,40
2017-01-01T14:18:59.387Z,40
2017-01-01T14:19:59.379Z,40
2017-01-01T14:20:59.799Z,40
2017-01-01T14:21:59.819Z,40
2017-01-01T14:22:59.791Z,40
2017-01-01T14:23:59.791Z,40
2017-01-01T14:24:59.799Z,40
2017-01-01T14:25:59.364Z,35
2017-01-01T14:26:59.776Z,35
2017-01-01T14:28:00.208Z,35
2017-01-01T14:29:00.176Z,35
2017-01-01T14:30:00.172Z,35
2017-01-01T14:31:00.165Z,35
2017-01-01T14:31:59.756Z,35